createdAt,value
2019-05-21T00:00:30.885Z,100.00
2019-05-21T00:03:00.476Z,100.00
2019-05-21T00:05:31.412Z,100.00
2019-05-21T00:08:00.838Z,100.00
2019-05-21T00:10:30.363Z,100.00
2019-05-21T00:12:59.836Z,100.00
2019-05-21T00:15:29.326Z,100.00
2019-05-21T00:17:59.249Z,100.00
2019-05-21T00:20:28.690Z,100.00
2019-05-21T00:22:58.171Z,100.00
2019-05-21T00:25:27.593Z,100.00
2019-05-21T00:28:00.102Z,100.00
2019-05-21T00:31:06.004Z,100.00
2019-05-21T00:34:11.922Z,100.00
2019-05-21T00:37:19.696Z,100.00
2019-05-21T00:40:25.515Z,100.00
2019-05-21T00:42:55.276Z,100.00
2019-05-21T00:45:24.717Z,100.00
2019-05-21T00:47:54.150Z,100.00
2019-05-21T00:50:23.614Z,100.00
2019-05-21T00:52:53.061Z,100.00
2019-05-21T00:55:22.526Z,100.00
2019-05-21T00:57:51.954Z,100.00
2019-05-21T01:00:21.654Z,100.00
2019-05-21T01:02:51.141Z,100.00
2019-05-21T01:05:22.115Z,100.00
2019-05-21T01:07:51.896Z,100.00
2019-05-21T01:10:21.378Z,100.00
2019-05-21T01:12:50.962Z,100.00
2019-05-21T01:15:20.572Z,100.00
2019-05-21T01:17:50.043Z,100.00
2019-05-21T01:20:21.469Z,100.00
2019-05-21T01:22:50.964Z,100.00
2019-05-21T01:25:20.427Z,100.00
2019-05-21T01:27:49.906Z,100.00
2019-05-21T01:30:19.445Z,100.00
2019-05-21T01:32:48.882Z,100.00
2019-05-21T01:35:18.436Z,100.00
2019-05-21T01:37:47.870Z,100.00
2019-05-21T01:40:17.499Z,100.00
2019-05-21T01:42:46.921Z,100.00
2019-05-21T01:45:16.521Z,100.00
2019-05-21T01:47:45.950Z,100.00
2019-05-21T01:50:15.404Z,100.00
2019-05-21T01:52:44.823Z,100.00
2019-05-21T01:55:14.361Z,100.00
2019-05-21T01:57:43.851Z,100.00
2019-05-21T02:00:13.553Z,100.00
2019-05-21T02:02:43.119Z,100.00
2019-05-21T02:05:13.248Z,100.00
2019-05-21T02:07:42.680Z,100.00
2019-05-21T02:10:12.390Z,100.00
2019-05-21T02:12:41.808Z,100.00
2019-05-21T02:15:13.047Z,100.00
2019-05-21T02:17:42.480Z,100.00
2019-05-21T02:20:11.996Z,100.00
2019-05-21T02:22:41.465Z,100.00
2019-05-21T02:25:11.641Z,100.00
2019-05-21T02:27:41.362Z,100.00
2019-05-21T02:30:12.351Z,100.00
2019-05-21T02:32:41.845Z,100.00
2019-05-21T02:35:13.213Z,100.00
2019-05-21T02:37:43.026Z,100.00
2019-05-21T02:40:13.058Z,100.00
2019-05-21T02:42:42.487Z,100.00
2019-05-21T02:45:13.876Z,100.00
2019-05-21T02:47:43.362Z,100.00
2019-05-21T02:50:13.552Z,100.00
2019-05-21T02:52:43.094Z,100.00
2019-05-21T02:55:12.981Z,100.00
2019-05-21T02:57:42.444Z,100.00
2019-05-21T03:00:26.796Z,100.00
2019-05-21T03:02:56.676Z,100.00
2019-05-21T03:05:26.274Z,100.00
2019-05-21T03:07:55.802Z,100.00
2019-05-21T03:10:25.384Z,100.00
2019-05-21T03:12:54.983Z,100.00
2019-05-21T03:15:24.758Z,100.00
2019-05-21T03:17:54.372Z,100.00
2019-05-21T03:20:23.837Z,100.00
2019-05-21T03:22:53.278Z,100.00
2019-05-21T03:25:22.730Z,100.00
2019-05-21T03:27:52.156Z,100.00
2019-05-21T03:30:21.765Z,100.00
2019-05-21T03:32:51.264Z,100.00
2019-05-21T03:35:38.931Z,100.00
2019-05-21T03:38:07.603Z,100.00
2019-05-21T03:40:37.575Z,100.00
2019-05-21T03:43:06.999Z,100.00
2019-05-21T03:45:38.054Z,100.00
2019-05-21T03:48:07.550Z,100.00
2019-05-21T03:50:37.222Z,100.00
2019-05-21T03:53:06.828Z,100.00
2019-05-21T03:55:36.294Z,100.00
2019-05-21T03:58:05.797Z,100.00
2019-05-21T04:00:35.384Z,100.00
2019-05-21T04:03:04.970Z,100.00
2019-05-21T04:05:34.481Z,100.00
2019-05-21T04:08:04.083Z,100.00
2019-05-21T04:10:33.556Z,100.00
2019-05-21T04:13:07.303Z,100.00
2019-05-21T04:15:56.702Z,100.00
2019-05-21T04:18:36.780Z,100.00
2019-05-21T04:21:06.242Z,100.00
2019-05-21T04:23:37.405Z,100.00
2019-05-21T04:26:06.847Z,100.00
2019-05-21T04:28:36.271Z,100.00
2019-05-21T04:31:05.857Z,100.00
2019-05-21T04:33:35.347Z,100.00
2019-05-21T04:36:05.096Z,100.00
2019-05-21T04:38:35.247Z,100.00
2019-05-21T04:41:04.846Z,100.00
2019-05-21T04:43:34.272Z,100.00
2019-05-21T04:46:03.915Z,100.00
2019-05-21T04:48:33.500Z,100.00
2019-05-21T04:51:03.425Z,100.00
2019-05-21T04:53:32.854Z,100.00
2019-05-21T04:56:02.372Z,100.00
2019-05-21T04:58:31.782Z,100.00
2019-05-21T05:01:01.242Z,100.00
2019-05-21T05:03:30.810Z,100.00
2019-05-21T05:06:00.283Z,100.00
2019-05-21T05:08:29.707Z,100.00
2019-05-21T05:10:59.239Z,100.00
2019-05-21T05:13:28.749Z,100.00
2019-05-21T05:15:58.243Z,100.00
2019-05-21T05:18:29.118Z,100.00
2019-05-21T05:20:58.580Z,100.00
2019-05-21T05:23:28.150Z,100.00
2019-05-21T05:25:57.682Z,100.00
2019-05-21T05:28:27.170Z,100.00
2019-05-21T05:30:56.765Z,100.00
2019-05-21T05:33:26.197Z,100.00
2019-05-21T05:35:55.741Z,100.00
2019-05-21T05:38:25.160Z,100.00
2019-05-21T05:40:54.689Z,100.00
2019-05-21T05:43:24.281Z,100.00
2019-05-21T05:45:53.759Z,100.00
2019-05-21T05:48:23.446Z,100.00
2019-05-21T05:50:56.246Z,100.00
2019-05-21T05:53:25.671Z,100.00
2019-05-21T05:55:55.236Z,100.00
2019-05-21T05:58:24.825Z,100.00
2019-05-21T06:00:54.370Z,100.00
2019-05-21T06:03:23.857Z,100.00
2019-05-21T06:05:53.393Z,100.00
2019-05-21T06:08:22.886Z,100.00
2019-05-21T06:10:52.466Z,100.00
2019-05-21T06:13:21.886Z,100.00
2019-05-21T06:15:51.376Z,100.00
2019-05-21T06:18:20.907Z,100.00
2019-05-21T06:20:51.849Z,100.00
2019-05-21T06:23:21.527Z,100.00
2019-05-21T06:25:51.558Z,100.00
2019-05-21T06:28:21.637Z,100.00
2019-05-21T06:30:51.147Z,100.00
2019-05-21T06:33:20.606Z,100.00
2019-05-21T06:35:50.025Z,100.00
2019-05-21T06:38:19.524Z,100.00
2019-05-21T06:40:49.019Z,100.00
2019-05-21T06:43:18.481Z,100.00
2019-05-21T06:45:47.931Z,100.00
2019-05-21T06:48:18.941Z,100.00
2019-05-21T06:50:48.375Z,100.00
2019-05-21T06:53:17.832Z,100.00
2019-05-21T06:55:47.327Z,100.00
2019-05-21T06:58:16.798Z,100.00
2019-05-21T07:00:46.280Z,100.00
2019-05-21T07:03:15.982Z,100.00
2019-05-21T07:05:58.411Z,100.00
2019-05-21T07:08:32.029Z,100.00
2019-05-21T07:10:48.260Z,100.00
2019-05-21T07:13:17.723Z,100.00
2019-05-21T07:15:47.150Z,100.00
2019-05-21T07:18:16.647Z,100.00
2019-05-21T07:20:46.140Z,100.00
2019-05-21T07:23:15.583Z,100.00
2019-05-21T07:25:45.894Z,100.00
2019-05-21T07:28:15.486Z,100.00
2019-05-21T07:30:45.030Z,100.00
2019-05-21T07:33:15.949Z,100.00
2019-05-21T07:35:45.461Z,100.00
2019-05-21T07:38:15.361Z,100.00
2019-05-21T07:40:45.607Z,100.00
2019-05-21T07:43:15.265Z,100.00
2019-05-21T07:45:44.824Z,100.00
2019-05-21T07:48:14.288Z,100.00
2019-05-21T07:50:43.884Z,100.00
2019-05-21T07:53:13.392Z,100.00
2019-05-21T07:55:43.892Z,100.00
2019-05-21T07:58:13.518Z,99.94
2019-05-21T08:00:43.247Z,99.48
2019-05-21T08:03:12.984Z,99.71
2019-05-21T08:05:42.436Z,99.50
2019-05-21T08:08:11.879Z,99.36
2019-05-21T08:10:41.530Z,99.33
2019-05-21T08:13:10.977Z,98.96
2019-05-21T08:15:40.475Z,98.00
2019-05-21T08:18:09.890Z,97.92
2019-05-21T08:20:39.367Z,97.19
2019-05-21T08:23:09.401Z,96.34
2019-05-21T08:25:38.842Z,97.06
2019-05-21T08:28:08.317Z,95.87
2019-05-21T08:30:37.792Z,95.86
2019-05-21T08:33:07.299Z,95.52
2019-05-21T08:35:36.807Z,95.67
2019-05-21T08:38:06.942Z,95.99
2019-05-21T08:40:36.490Z,95.90
2019-05-21T08:43:06.011Z,96.40
2019-05-21T08:45:35.445Z,96.36
2019-05-21T08:48:05.324Z,96.53
2019-05-21T08:50:34.734Z,97.11
2019-05-21T08:53:04.502Z,96.95
2019-05-21T08:55:34.015Z,96.30
2019-05-21T08:58:07.478Z,95.63
2019-05-21T09:00:35.085Z,95.68
2019-05-21T09:03:04.790Z,94.59
2019-05-21T09:05:34.221Z,95.22
2019-05-21T09:08:03.788Z,94.72
2019-05-21T09:10:33.293Z,94.35
2019-05-21T09:13:02.740Z,93.97
2019-05-21T09:15:32.159Z,94.57
2019-05-21T09:18:01.658Z,93.62
2019-05-21T09:20:32.764Z,92.94
2019-05-21T09:23:02.214Z,93.00
2019-05-21T09:25:31.675Z,93.14
2019-05-21T09:28:01.187Z,92.58
2019-05-21T09:30:30.637Z,91.90
2019-05-21T09:33:01.437Z,92.33
2019-05-21T09:35:30.906Z,91.70
2019-05-21T09:38:00.350Z,91.14
2019-05-21T09:40:29.941Z,91.66
2019-05-21T09:42:59.405Z,92.43
2019-05-21T09:45:28.974Z,91.79
2019-05-21T09:47:58.432Z,89.80
2019-05-21T09:50:29.535Z,90.78
2019-05-21T09:52:58.990Z,91.24
2019-05-21T09:55:28.435Z,89.59
2019-05-21T09:58:03.843Z,90.46
2019-05-21T10:00:51.687Z,90.89
2019-05-21T10:03:22.804Z,90.65
2019-05-21T10:05:52.267Z,91.92
2019-05-21T10:08:21.822Z,91.51
2019-05-21T10:10:51.309Z,92.32
2019-05-21T10:13:20.907Z,92.69
2019-05-21T10:15:50.377Z,92.39
2019-05-21T10:18:19.840Z,92.86
2019-05-21T10:20:49.310Z,93.05
2019-05-21T10:23:20.683Z,93.32
2019-05-21T10:25:50.134Z,93.55
2019-05-21T10:28:19.598Z,93.39
2019-05-21T10:30:49.047Z,92.67
2019-05-21T10:33:18.472Z,91.51
2019-05-21T10:35:47.914Z,90.03
2019-05-21T10:38:17.341Z,88.81
2019-05-21T10:40:46.868Z,89.41
2019-05-21T10:43:16.472Z,87.43
2019-05-21T10:45:46.006Z,86.82
2019-05-21T10:48:15.477Z,86.68
2019-05-21T10:50:45.088Z,85.61
2019-05-21T10:53:14.686Z,84.44
2019-05-21T10:55:44.507Z,85.40
2019-05-21T10:58:14.139Z,84.29
2019-05-21T11:00:44.981Z,85.01
2019-05-21T11:03:16.277Z,84.43
2019-05-21T11:05:47.539Z,83.47
2019-05-21T11:08:25.201Z,84.01
2019-05-21T11:10:48.502Z,84.47
2019-05-21T11:13:17.916Z,84.75
2019-05-21T11:15:47.446Z,84.81
2019-05-21T11:18:16.852Z,84.18
2019-05-21T11:20:46.283Z,83.92
2019-05-21T11:23:15.752Z,83.73
2019-05-21T11:25:45.193Z,83.28
2019-05-21T11:28:14.656Z,83.85
2019-05-21T11:30:44.450Z,84.72
2019-05-21T11:33:13.986Z,84.63
2019-05-21T11:35:43.462Z,85.24
2019-05-21T11:38:14.583Z,83.76
2019-05-21T11:40:44.079Z,82.53
2019-05-21T11:43:13.489Z,83.72
2019-05-21T11:45:43.201Z,83.07
2019-05-21T11:48:12.800Z,81.64
2019-05-21T11:50:42.283Z,81.96
2019-05-21T11:53:11.720Z,82.86
2019-05-21T11:55:41.137Z,81.93
2019-05-21T11:58:10.656Z,82.03
2019-05-21T12:00:40.188Z,81.76
2019-05-21T12:03:09.638Z,80.73
2019-05-21T12:05:39.203Z,81.41
2019-05-21T12:08:08.657Z,80.35
2019-05-21T12:10:38.075Z,81.29
2019-05-21T12:13:07.532Z,82.01
2019-05-21T12:15:37.104Z,81.25
2019-05-21T12:18:06.524Z,81.77
2019-05-21T12:20:37.498Z,81.41
2019-05-21T12:23:07.232Z,81.87
2019-05-21T12:25:36.668Z,81.05
2019-05-21T12:28:06.146Z,81.57
2019-05-21T12:30:35.618Z,81.77
2019-05-21T12:33:05.549Z,81.10
2019-05-21T12:35:35.027Z,80.06
2019-05-21T12:38:04.614Z,80.23
2019-05-21T12:40:34.153Z,79.87
2019-05-21T12:43:03.590Z,79.82
2019-05-21T12:45:33.042Z,79.88
2019-05-21T12:48:02.514Z,79.74
2019-05-21T12:50:31.949Z,79.57
2019-05-21T12:53:01.398Z,79.79
2019-05-21T12:55:30.824Z,79.88
2019-05-21T12:58:00.310Z,80.76
2019-05-21T13:00:31.682Z,80.31
2019-05-21T13:03:01.174Z,80.06
2019-05-21T13:05:30.607Z,81.09
2019-05-21T13:08:00.239Z,82.43
2019-05-21T13:10:29.670Z,82.13
2019-05-21T13:13:00.652Z,80.60
2019-05-21T13:15:30.098Z,79.92
2019-05-21T13:17:59.622Z,80.88
2019-05-21T13:20:29.616Z,80.74
2019-05-21T13:22:59.112Z,80.85
2019-05-21T13:25:29.046Z,79.94
2019-05-21T13:27:58.506Z,80.24
2019-05-21T13:30:27.948Z,80.36
2019-05-21T13:32:57.600Z,80.03
2019-05-21T13:35:27.286Z,80.32
2019-05-21T13:37:56.801Z,81.30
2019-05-21T13:40:26.692Z,81.86
2019-05-21T13:42:56.323Z,81.39
2019-05-21T13:45:25.752Z,82.58
2019-05-21T13:47:55.206Z,81.87
2019-05-21T13:50:26.264Z,82.27
2019-05-21T13:52:55.701Z,82.27
2019-05-21T13:55:25.238Z,82.91
2019-05-21T13:57:54.808Z,81.02
2019-05-21T14:00:35.447Z,81.28
2019-05-21T14:03:05.052Z,80.64
2019-05-21T14:05:34.568Z,80.66
2019-05-21T14:08:04.197Z,80.98
2019-05-21T14:10:34.120Z,81.28
2019-05-21T14:13:03.839Z,81.36
2019-05-21T14:15:33.346Z,81.88
2019-05-21T14:18:02.867Z,82.66
2019-05-21T14:20:32.500Z,82.24
2019-05-21T14:23:01.974Z,82.22
2019-05-21T14:25:31.467Z,82.40
2019-05-21T14:28:02.193Z,82.11
2019-05-21T14:30:31.612Z,82.56
2019-05-21T14:33:01.118Z,81.63
2019-05-21T14:35:30.649Z,81.30
2019-05-21T14:38:00.127Z,81.32
2019-05-21T14:40:32.413Z,80.38
2019-05-21T14:43:01.781Z,80.65
2019-05-21T14:45:34.176Z,81.86
2019-05-21T14:48:03.099Z,80.51
2019-05-21T14:50:32.520Z,80.11
2019-05-21T14:53:02.069Z,78.65
2019-05-21T14:55:31.478Z,78.84
2019-05-21T14:58:00.942Z,78.30
2019-05-21T15:00:37.950Z,78.97
2019-05-21T15:03:07.393Z,79.92
2019-05-21T15:05:37.006Z,79.06
2019-05-21T15:08:06.703Z,79.75
2019-05-21T15:10:47.899Z,78.97
2019-05-21T15:13:08.089Z,78.72
2019-05-21T15:15:37.554Z,78.74
2019-05-21T15:18:08.052Z,79.29
2019-05-21T15:20:45.142Z,79.65
2019-05-21T15:23:14.596Z,79.58
2019-05-21T15:25:44.368Z,80.13
2019-05-21T15:28:13.860Z,79.06
2019-05-21T15:30:43.286Z,79.56
2019-05-21T15:33:12.743Z,80.62
2019-05-21T15:35:42.231Z,79.54
2019-05-21T15:38:11.672Z,79.36
2019-05-21T15:40:41.266Z,80.57
2019-05-21T15:43:10.915Z,80.59
2019-05-21T15:45:40.347Z,80.11
2019-05-21T15:48:09.872Z,81.35
2019-05-21T15:50:39.453Z,81.43
2019-05-21T15:53:10.387Z,81.37
2019-05-21T15:55:39.895Z,80.97
2019-05-21T15:58:09.496Z,82.44
2019-05-21T16:00:38.996Z,84.16
2019-05-21T16:03:08.502Z,84.80
2019-05-21T16:05:37.994Z,84.47
2019-05-21T16:08:07.463Z,84.18
2019-05-21T16:10:36.888Z,84.89
2019-05-21T16:13:06.368Z,84.66
2019-05-21T16:15:35.784Z,86.41
2019-05-21T16:18:05.314Z,85.76
2019-05-21T16:20:36.443Z,86.13
2019-05-21T16:23:05.901Z,85.47
2019-05-21T16:25:35.428Z,85.53
2019-05-21T16:28:05.002Z,85.94
2019-05-21T16:30:34.428Z,85.06
2019-05-21T16:33:04.138Z,85.33
2019-05-21T16:35:34.018Z,86.71
2019-05-21T16:38:03.783Z,87.46
2019-05-21T16:40:33.535Z,87.83
2019-05-21T16:43:04.622Z,88.33
2019-05-21T16:45:34.189Z,87.15
2019-05-21T16:48:03.709Z,87.40
2019-05-21T16:50:33.129Z,87.27
2019-05-21T16:53:03.938Z,86.37
2019-05-21T16:55:35.008Z,86.64
2019-05-21T16:58:07.288Z,86.92
2019-05-21T17:00:35.934Z,87.19
2019-05-21T17:03:05.546Z,88.19
2019-05-21T17:05:34.994Z,87.76
2019-05-21T17:08:06.385Z,88.23
2019-05-21T17:10:35.989Z,88.23
2019-05-21T17:13:05.543Z,88.46
2019-05-21T17:15:35.158Z,89.50
2019-05-21T17:18:04.805Z,90.95
2019-05-21T17:20:34.588Z,90.96
2019-05-21T17:23:04.066Z,91.25
2019-05-21T17:25:35.122Z,90.87
2019-05-21T17:28:04.683Z,91.74
2019-05-21T17:30:34.297Z,91.39
2019-05-21T17:33:03.828Z,91.17
2019-05-21T17:35:34.871Z,90.77
2019-05-21T17:38:04.397Z,91.69
2019-05-21T17:40:33.935Z,92.35
2019-05-21T17:43:03.463Z,92.66
2019-05-21T17:45:32.977Z,93.32
2019-05-21T17:48:02.440Z,94.11
2019-05-21T17:50:32.057Z,94.03
2019-05-21T17:53:01.588Z,94.83
2019-05-21T17:55:31.677Z,94.78
2019-05-21T17:58:02.753Z,94.19
2019-05-21T18:00:41.269Z,94.53
2019-05-21T18:03:10.886Z,94.73
2019-05-21T18:05:40.629Z,94.63
2019-05-21T18:08:10.417Z,95.32
2019-05-21T18:10:40.416Z,95.81
2019-05-21T18:13:09.935Z,95.64
2019-05-21T18:15:39.429Z,95.25
2019-05-21T18:18:09.129Z,95.21
2019-05-21T18:20:39.034Z,96.01
2019-05-21T18:23:09.727Z,96.11
2019-05-21T18:25:39.276Z,96.04
2019-05-21T18:28:10.199Z,96.22
2019-05-21T18:30:41.689Z,96.55
2019-05-21T18:33:11.555Z,96.54
2019-05-21T18:35:41.019Z,96.53
2019-05-21T18:38:10.580Z,96.66
2019-05-21T18:40:40.179Z,96.07
2019-05-21T18:43:09.672Z,96.33
2019-05-21T18:45:39.297Z,96.74
2019-05-21T18:48:08.878Z,96.81
2019-05-21T18:50:38.346Z,96.89
2019-05-21T18:53:07.842Z,96.46
2019-05-21T18:55:37.302Z,96.17
2019-05-21T18:58:06.800Z,96.07
2019-05-21T19:00:36.235Z,95.88
2019-05-21T19:03:05.801Z,95.81
2019-05-21T19:05:35.272Z,95.89
2019-05-21T19:08:05.265Z,95.83
2019-05-21T19:10:34.745Z,96.14
2019-05-21T19:13:04.394Z,96.28
2019-05-21T19:15:33.908Z,96.15
2019-05-21T19:18:03.514Z,96.41
2019-05-21T19:20:33.139Z,96.52
2019-05-21T19:23:02.560Z,96.49
2019-05-21T19:25:32.101Z,96.65
2019-05-21T19:28:01.523Z,96.87
2019-05-21T19:30:31.978Z,96.73
2019-05-21T19:33:01.488Z,96.91
2019-05-21T19:35:33.213Z,96.85
2019-05-21T19:38:02.314Z,96.98
2019-05-21T19:40:31.848Z,96.90
2019-05-21T19:43:01.306Z,97.19
2019-05-21T19:45:31.503Z,97.16
2019-05-21T19:48:01.082Z,97.17
2019-05-21T19:50:30.682Z,97.18
2019-05-21T19:53:00.110Z,96.94
2019-05-21T19:55:29.570Z,97.09
2019-05-21T19:57:59.090Z,96.96
2019-05-21T20:00:30.481Z,96.92
2019-05-21T20:03:00.518Z,96.86
2019-05-21T20:05:30.739Z,96.78
2019-05-21T20:08:00.223Z,96.62
2019-05-21T20:10:29.667Z,96.30
2019-05-21T20:12:59.209Z,96.30
2019-05-21T20:15:28.708Z,96.26
2019-05-21T20:18:07.038Z,96.30
2019-05-21T20:20:30.251Z,96.59
2019-05-21T20:23:00.151Z,96.53
2019-05-21T20:25:30.257Z,96.44
2019-05-21T20:28:00.082Z,96.55
2019-05-21T20:30:31.848Z,96.63
2019-05-21T20:33:01.851Z,96.79
2019-05-21T20:35:31.380Z,96.23
2019-05-21T20:38:01.476Z,96.25
2019-05-21T20:40:31.293Z,96.39
2019-05-21T20:43:00.880Z,96.19
2019-05-21T20:45:31.457Z,96.34
2019-05-21T20:48:02.881Z,96.24
2019-05-21T20:50:32.340Z,96.22
2019-05-21T20:53:02.020Z,96.07
2019-05-21T20:55:32.608Z,96.03
2019-05-21T20:58:03.601Z,96.11
2019-05-21T21:00:36.241Z,96.18
2019-05-21T21:03:08.109Z,95.71
2019-05-21T21:05:37.807Z,95.92
2019-05-21T21:08:07.772Z,95.53
2019-05-21T21:10:37.978Z,95.41
2019-05-21T21:13:08.952Z,95.66
2019-05-21T21:15:39.213Z,95.60
2019-05-21T21:18:09.130Z,95.09
2019-05-21T21:20:38.793Z,95.44
2019-05-21T21:23:08.238Z,95.38
2019-05-21T21:25:38.185Z,94.87
2019-05-21T21:28:07.858Z,94.82
2019-05-21T21:30:38.823Z,94.71
2019-05-21T21:33:10.124Z,95.05
2019-05-21T21:35:40.121Z,95.15
2019-05-21T21:38:12.769Z,95.03
2019-05-21T21:40:42.325Z,95.07
2019-05-21T21:43:12.356Z,95.27
2019-05-21T21:45:42.520Z,95.08
2019-05-21T21:48:12.387Z,95.22
2019-05-21T21:50:42.453Z,95.37
2019-05-21T21:53:12.166Z,95.87
2019-05-21T21:55:41.891Z,96.16
2019-05-21T21:58:11.706Z,95.94
2019-05-21T22:01:01.007Z,95.71
2019-05-21T22:03:33.501Z,95.83
2019-05-21T22:06:06.495Z,95.90
2019-05-21T22:08:36.235Z,95.92
2019-05-21T22:11:06.002Z,95.82
2019-05-21T22:13:35.720Z,95.79
2019-05-21T22:16:06.095Z,95.86
2019-05-21T22:18:37.312Z,95.98
2019-05-21T22:21:07.636Z,96.18
2019-05-21T22:23:37.156Z,96.39
2019-05-21T22:26:06.600Z,96.35
2019-05-21T22:28:37.645Z,96.21
2019-05-21T22:31:07.053Z,96.18
2019-05-21T22:33:37.070Z,96.37
2019-05-21T22:36:06.874Z,96.32
2019-05-21T22:38:36.337Z,96.31
2019-05-21T22:41:06.157Z,96.25
2019-05-21T22:43:35.815Z,96.47
2019-05-21T22:46:05.267Z,96.48
2019-05-21T22:48:34.788Z,96.30
2019-05-21T22:51:04.529Z,96.46
2019-05-21T22:53:33.945Z,96.45
2019-05-21T22:56:03.458Z,95.86
2019-05-21T22:58:32.882Z,95.28
2019-05-21T23:01:02.883Z,95.03
2019-05-21T23:03:32.309Z,95.32
2019-05-21T23:06:01.780Z,95.08
2019-05-21T23:08:31.835Z,94.92
2019-05-21T23:11:01.302Z,94.67
2019-05-21T23:13:32.290Z,95.20
2019-05-21T23:16:01.937Z,95.63
2019-05-21T23:18:33.371Z,96.09
2019-05-21T23:21:03.984Z,96.48
2019-05-21T23:23:33.650Z,96.97
2019-05-21T23:26:03.737Z,96.90
2019-05-21T23:28:34.406Z,97.00
2019-05-21T23:31:05.380Z,97.05
2019-05-21T23:33:36.165Z,96.80
2019-05-21T23:36:09.871Z,97.24
2019-05-21T23:38:39.398Z,97.26
2019-05-21T23:41:08.874Z,96.99
2019-05-21T23:43:40.169Z,96.88
2019-05-21T23:46:10.675Z,97.04
2019-05-21T23:48:40.565Z,97.08
2019-05-21T23:51:10.897Z,96.25
2019-05-21T23:53:40.779Z,95.95
2019-05-21T23:56:10.386Z,95.82
2019-05-21T23:58:39.834Z,95.74
